Time;durP1;ratioP1;P1;durP2;ratioP2;P2;SDS_P1;SDS_P2;PMS_P1;PMS_P2;Temp;Humidity;BMP_temperature;BMP_pressure;BME280_temperature;BME280_humidity;BME280_pressure;Samples;Min_cycle;Max_cycle;Signal;HPM_P1;HPM_P2
2021/08/21 00:01:50;;;;;;;14.60;12.40;;;;;;;15.88;82.72;100604.71;92882;1208;80385;-65
2021/08/21 00:03:58;;;;;;;17.00;11.90;;;;;;;15.89;82.79;100603.36;92902;1209;81984;-65
2021/08/21 00:06:05;;;;;;;16.60;13.30;;;;;;;15.89;82.76;100603.95;92905;1209;98276;-62
2021/08/21 00:08:13;;;;;;;15.90;13.30;;;;;;;15.86;82.91;100607.98;92883;1209;87886;-62
2021/08/21 00:10:21;;;;;;;15.20;12.90;;;;;;;15.86;82.89;100614.32;92897;1208;92809;-62
2021/08/21 00:12:31;;;;;;;17.60;13.70;;;;;;;15.90;82.85;100614.86;92870;1208;80517;-61
2021/08/21 00:14:42;;;;;;;15.30;12.60;;;;;;;15.95;82.76;100615.69;92903;1208;82139;-63
2021/08/21 00:16:49;;;;;;;15.40;13.60;;;;;;;15.98;82.79;100614.87;92871;1209;98665;-65
2021/08/21 00:18:57;;;;;;;15.80;13.80;;;;;;;15.94;82.89;100612.89;92861;1209;87399;-65
2021/08/21 00:21:07;;;;;;;18.00;13.20;;;;;;;15.92;82.87;100614.70;92881;1209;93696;-61
2021/08/21 00:23:15;;;;;;;14.90;12.80;;;;;;;15.97;82.93;100616.35;92879;1208;81177;-62
2021/08/21 00:25:22;;;;;;;15.30;12.90;;;;;;;16.01;82.95;100617.45;92870;1200;79720;-65
2021/08/21 00:27:30;;;;;;;16.30;13.50;;;;;;;16.00;83.00;100619.89;92885;1208;99888;-64
2021/08/21 00:29:37;;;;;;;15.90;14.00;;;;;;;15.99;82.96;100617.80;92886;1208;86419;-65
2021/08/21 00:31:46;;;;;;;17.80;13.80;;;;;;;16.03;82.91;100621.80;92879;1209;93749;-65
2021/08/21 00:33:53;;;;;;;16.90;13.50;;;;;;;16.05;82.88;100621.16;92848;1209;81514;-65
2021/08/21 00:36:01;;;;;;;16.30;13.80;;;;;;;16.03;82.86;100624.47;92874;1208;81237;-61
2021/08/21 00:38:09;;;;;;;15.90;13.40;;;;;;;16.04;82.76;100619.70;92855;1209;99031;-62
2021/08/21 00:40:17;;;;;;;17.40;13.60;;;;;;;16.08;82.73;100618.16;92880;1209;89031;-62
2021/08/21 00:42:25;;;;;;;16.00;13.00;;;;;;;16.06;82.84;100620.45;92880;1208;94176;-61
2021/08/21 00:44:35;;;;;;;16.20;13.20;;;;;;;16.05;82.79;100619.35;92867;1209;81199;-62
2021/08/21 00:47:07;;;;;;;15.70;13.30;;;;;;;16.04;82.93;100617.80;92863;1202;81064;-65
2021/08/21 00:49:15;;;;;;;16.90;13.60;;;;;;;16.08;82.83;100622.19;92876;1209;99688;-65
2021/08/21 00:51:22;;;;;;;15.30;13.60;;;;;;;16.07;82.85;100619.13;92894;1208;88316;-65
2021/08/21 00:53:31;;;;;;;15.10;13.20;;;;;;;16.07;82.88;100617.63;92884;1209;93843;-65
2021/08/21 00:55:38;;;;;;;15.10;13.50;;;;;;;16.05;82.87;100614.20;92875;1209;78702;-65
2021/08/21 00:57:46;;;;;;;15.40;13.10;;;;;;;16.07;82.85;100615.79;92892;1209;80775;-65
2021/08/21 00:59:54;;;;;;;15.00;13.20;;;;;;;16.08;82.82;100614.52;92883;1208;98148;-62
2021/08/21 01:02:03;;;;;;;16.30;13.00;;;;;;;16.09;82.77;100617.32;92863;1208;88390;-61
2021/08/21 01:04:11;;;;;;;14.40;12.80;;;;;;;16.06;82.82;100617.17;92904;1200;93015;-60
2021/08/21 01:06:18;;;;;;;16.30;14.10;;;;;;;16.12;82.75;100618.34;92860;1208;79185;-61
2021/08/21 01:08:26;;;;;;;15.10;12.80;;;;;;;16.13;82.81;100616.20;92901;1208;80311;-61
2021/08/21 01:10:34;;;;;;;17.70;13.30;;;;;;;16.10;82.77;100613.12;92866;1209;97800;-65
2021/08/21 01:12:45;;;;;;;14.30;12.80;;;;;;;16.10;82.81;100613.70;92899;1208;87668;-65
2021/08/21 01:14:55;;;;;;;15.40;13.50;;;;;;;16.08;82.86;100609.98;92904;1208;93306;-66
2021/08/21 01:17:03;;;;;;;15.30;13.40;;;;;;;16.11;82.88;100609.83;92875;1209;79190;-65
2021/08/21 01:19:12;;;;;;;15.30;13.60;;;;;;;16.14;82.91;100610.79;92873;1208;83183;-65
2021/08/21 01:21:22;;;;;;;16.20;13.70;;;;;;;16.16;82.74;100608.20;92889;1208;98227;-61
2021/08/21 01:23:30;;;;;;;17.20;14.40;;;;;;;16.17;82.72;100606.28;92870;1208;86401;-61
2021/08/21 01:25:38;;;;;;;17.80;14.40;;;;;;;16.18;82.76;100607.95;92852;1208;93098;-65
2021/08/21 01:27:45;;;;;;;17.60;14.10;;;;;;;16.14;82.86;100602.73;92853;1209;79597;-65
2021/08/21 01:29:54;;;;;;;16.60;14.80;;;;;;;16.10;82.91;100601.62;92872;1208;81971;-66
2021/08/21 01:32:02;;;;;;;16.40;13.70;;;;;;;16.12;82.92;100604.51;92866;1208;97955;-66
2021/08/21 01:34:10;;;;;;;19.60;13.50;;;;;;;16.14;82.87;100602.69;92875;1208;88197;-65
2021/08/21 01:36:17;;;;;;;18.00;14.30;;;;;;;16.12;82.80;100599.02;92889;1208;93638;-65
2021/08/21 01:38:25;;;;;;;16.80;14.40;;;;;;;16.12;82.82;100598.01;92881;1208;79353;-66
2021/08/21 01:40:33;;;;;;;16.90;13.90;;;;;;;16.10;82.87;100598.05;92878;1208;80168;-65
2021/08/21 01:42:40;;;;;;;16.30;13.90;;;;;;;16.12;82.89;100599.77;92894;1209;96738;-65
2021/08/21 01:44:49;;;;;;;16.70;14.50;;;;;;;16.11;82.92;100596.84;92871;1208;88073;-65
2021/08/21 01:46:57;;;;;;;18.10;14.90;;;;;;;16.13;82.94;100596.23;92882;1209;92886;-65
2021/08/21 01:49:07;;;;;;;17.70;15.80;;;;;;;16.14;82.89;100597.66;92882;1208;79864;-65
2021/08/21 01:51:15;;;;;;;17.10;15.30;;;;;;;16.14;82.95;100598.08;92908;1209;81664;-65
2021/08/21 01:53:24;;;;;;;19.70;15.70;;;;;;;16.17;82.83;100595.84;92861;1208;97499;-65
2021/08/21 01:55:32;;;;;;;18.50;14.80;;;;;;;16.13;82.96;100595.61;92872;1208;87517;-65
2021/08/21 01:57:44;;;;;;;17.40;15.50;;;;;;;16.08;83.00;100595.77;92867;1209;94980;-65
2021/08/21 01:59:53;;;;;;;20.90;15.70;;;;;;;16.11;83.00;100600.66;92911;1208;78076;-63
2021/08/21 02:02:01;;;;;;;17.10;15.00;;;;;;;16.08;83.02;100602.90;92889;1209;79829;-66
2021/08/21 02:04:09;;;;;;;19.10;15.00;;;;;;;16.10;83.03;100603.48;92855;1209;97444;-65
2021/08/21 02:06:17;;;;;;;18.70;15.40;;;;;;;16.12;83.03;100600.36;92895;1208;87814;-62
2021/08/21 02:08:25;;;;;;;19.30;15.90;;;;;;;16.13;82.95;100601.65;92867;1209;95197;-61
2021/08/21 02:10:33;;;;;;;18.80;16.40;;;;;;;16.15;82.95;100601.39;92882;1209;80509;-61
2021/08/21 02:12:41;;;;;;;20.60;16.70;;;;;;;16.13;83.05;100602.32;92863;1200;80822;-62
2021/08/21 02:14:49;;;;;;;18.90;16.00;;;;;;;16.10;83.19;100606.45;92874;1208;97469;-65
2021/08/21 02:17:04;;;;;;;20.50;16.60;;;;;;;16.12;83.03;100605.98;92889;1207;86456;-66
2021/08/21 02:19:12;;;;;;;19.00;15.40;;;;;;;16.14;83.09;100608.06;92862;1209;94424;-66
2021/08/21 02:21:20;;;;;;;18.60;15.80;;;;;;;16.14;83.10;100609.86;92898;1208;79629;-65
2021/08/21 02:23:28;;;;;;;20.90;17.40;;;;;;;16.15;83.02;100611.48;92890;1200;80883;-65
2021/08/21 02:25:36;;;;;;;19.90;16.20;;;;;;;16.10;83.18;100615.29;92905;1208;97338;-65
2021/08/21 02:27:55;;;;;;;20.50;16.50;;;;;;;16.09;83.16;100612.75;92861;1209;86652;-66
2021/08/21 02:30:03;;;;;;;23.20;16.60;;;;;;;16.11;83.19;100617.77;92854;1208;92459;-61
2021/08/21 02:32:11;;;;;;;20.10;15.50;;;;;;;16.13;83.18;100618.46;92888;1208;79133;-62
2021/08/21 02:34:21;;;;;;;19.50;16.90;;;;;;;16.16;83.20;100616.11;92876;1208;81381;-61
2021/08/21 02:36:29;;;;;;;20.50;15.30;;;;;;;16.18;83.20;100617.17;92870;1208;98022;-66
2021/08/21 02:38:37;;;;;;;19.80;15.60;;;;;;;16.21;83.09;100613.74;92879;1208;87796;-65
2021/08/21 02:40:45;;;;;;;19.80;15.80;;;;;;;16.24;83.05;100610.04;92869;1209;93848;-61
2021/08/21 02:42:53;;;;;;;19.50;16.30;;;;;;;16.25;83.09;100612.96;92856;1209;80041;-63
2021/08/21 02:45:00;;;;;;;19.90;15.50;;;;;;;16.20;83.12;100614.10;92873;1208;82079;-62
2021/08/21 02:47:08;;;;;;;18.40;15.50;;;;;;;16.13;83.24;100615.36;92866;1208;97882;-61
2021/08/21 02:49:17;;;;;;;20.50;16.60;;;;;;;16.13;83.20;100615.31;92879;1208;87209;-61
2021/08/21 02:51:24;;;;;;;20.10;15.20;;;;;;;16.15;83.23;100617.48;92881;1209;94405;-66
2021/08/21 02:53:32;;;;;;;20.30;16.50;;;;;;;16.18;83.15;100611.94;92879;1209;78456;-65
2021/08/21 02:55:39;;;;;;;21.10;17.20;;;;;;;16.17;83.25;100611.22;92900;1208;81903;-61
2021/08/21 02:57:47;;;;;;;20.70;17.20;;;;;;;16.21;83.15;100613.25;92888;1208;98839;-61
2021/08/21 02:59:54;;;;;;;19.60;16.00;;;;;;;16.22;83.16;100613.54;92863;1208;87126;-65
2021/08/21 03:02:02;;;;;;;19.40;16.30;;;;;;;16.19;83.07;100610.63;92857;1209;95068;-65
2021/08/21 03:04:09;;;;;;;19.20;16.90;;;;;;;16.17;83.15;100611.06;92884;1208;80374;-66
2021/08/21 03:06:17;;;;;;;20.70;17.00;;;;;;;16.19;83.12;100608.36;92900;1208;81612;-65
2021/08/21 03:08:25;;;;;;;20.10;16.80;;;;;;;16.14;83.14;100610.86;88170;1208;3012912;-65
2021/08/21 03:10:32;;;;;;;19.80;16.30;;;;;;;16.14;83.18;100609.07;92891;1208;66816;-62
2021/08/21 03:12:40;;;;;;;22.00;16.30;;;;;;;16.13;83.12;100609.50;92860;1208;93723;-62
2021/08/21 03:14:47;;;;;;;20.00;17.60;;;;;;;16.10;83.18;100609.52;92864;1208;81876;-65
2021/08/21 03:16:55;;;;;;;19.30;16.20;;;;;;;16.11;83.15;100616.52;92885;1208;81158;-65
2021/08/21 03:19:02;;;;;;;18.90;16.90;;;;;;;16.14;83.17;100613.05;92881;1208;97264;-65
2021/08/21 03:21:10;;;;;;;20.70;16.40;;;;;;;16.12;83.24;100612.27;92886;1208;87144;-65
2021/08/21 03:23:17;;;;;;;20.50;16.50;;;;;;;16.12;83.19;100613.52;92896;1209;93427;-66
2021/08/21 03:25:25;;;;;;;17.90;15.00;;;;;;;16.13;83.06;100614.11;92894;1208;81140;-63
2021/08/21 03:27:32;;;;;;;19.60;15.90;;;;;;;16.15;83.05;100616.66;92881;1208;81494;-62
2021/08/21 03:29:43;;;;;;;21.30;16.60;;;;;;;16.17;82.98;100621.42;92886;1208;99366;-63
2021/08/21 03:31:50;;;;;;;20.20;16.40;;;;;;;16.10;83.14;100620.96;92908;1208;86557;-61
2021/08/21 03:33:58;;;;;;;21.40;17.10;;;;;;;16.05;83.23;100625.27;92874;1208;94274;-61
2021/08/21 03:36:06;;;;;;;18.80;15.30;;;;;;;16.03;83.27;100624.53;92865;1208;80515;-65
2021/08/21 03:38:13;;;;;;;20.10;15.90;;;;;;;16.03;83.11;100626.49;92883;1208;80657;-65
2021/08/21 03:40:21;;;;;;;20.30;16.90;;;;;;;16.00;83.26;100625.48;92866;1209;99568;-66
2021/08/21 03:42:29;;;;;;;22.10;17.60;;;;;;;16.00;83.32;100625.51;92892;1208;87721;-65
2021/08/21 03:44:37;;;;;;;19.80;16.50;;;;;;;16.05;83.26;100624.42;92869;1209;93983;-65
2021/08/21 03:46:44;;;;;;;20.90;16.90;;;;;;;16.06;83.33;100624.52;92860;1208;79569;-61
2021/08/21 03:48:52;;;;;;;21.70;16.10;;;;;;;16.06;83.31;100629.04;92868;1208;80891;-62
2021/08/21 03:50:59;;;;;;;21.70;17.40;;;;;;;16.10;83.33;100629.64;92888;1209;98919;-64
2021/08/21 03:53:07;;;;;;;22.10;18.00;;;;;;;16.10;83.29;100632.06;92887;1208;86959;-65
2021/08/21 03:55:15;;;;;;;22.00;17.90;;;;;;;16.07;83.37;100631.80;92841;1208;93726;-66
2021/08/21 03:57:23;;;;;;;21.20;17.90;;;;;;;16.05;83.30;100633.15;92875;1208;80822;-64
2021/08/21 03:59:30;;;;;;;20.40;16.80;;;;;;;16.06;83.25;100635.11;92878;1208;82082;-65
2021/08/21 04:01:39;;;;;;;21.10;16.90;;;;;;;16.04;83.39;100638.52;92872;1208;98028;-61
2021/08/21 04:03:47;;;;;;;21.70;17.90;;;;;;;16.05;83.39;100644.42;92890;1208;88347;-61
2021/08/21 04:05:54;;;;;;;22.50;18.20;;;;;;;16.01;83.54;100643.95;92876;1208;94114;-65
2021/08/21 04:08:02;;;;;;;23.50;19.10;;;;;;;16.01;83.61;100642.82;92867;1208;82197;-66
2021/08/21 04:10:12;;;;;;;21.60;17.60;;;;;;;15.99;83.65;100645.05;92901;1208;80982;-66
2021/08/21 04:12:20;;;;;;;21.10;18.10;;;;;;;16.02;83.62;100648.31;92870;1208;98957;-66
2021/08/21 04:14:27;;;;;;;24.20;18.60;;;;;;;16.05;83.47;100650.47;92899;1208;87717;-65
2021/08/21 04:16:35;;;;;;;25.40;19.30;;;;;;;16.05;83.55;100653.91;92859;1209;94145;-65
2021/08/21 04:18:43;;;;;;;28.60;21.00;;;;;;;15.99;83.59;100652.52;92880;1208;78622;-65
2021/08/21 04:20:50;;;;;;;22.50;19.10;;;;;;;15.97;83.62;100655.26;92883;1208;80536;-65
2021/08/21 04:23:01;;;;;;;24.40;18.60;;;;;;;15.97;83.64;100656.88;92864;1208;99678;-65
2021/08/21 04:25:13;;;;;;;24.10;18.40;;;;;;;15.95;83.63;100661.85;92902;1208;87394;-61
2021/08/21 04:27:21;;;;;;;20.70;17.10;;;;;;;16.04;83.62;100660.80;92898;1208;94094;-61
2021/08/21 04:29:31;;;;;;;22.80;18.20;;;;;;;16.08;83.59;100662.14;92862;1208;78897;-61
2021/08/21 04:31:39;;;;;;;24.50;17.80;;;;;;;16.11;83.58;100666.98;92887;1209;81106;-61
2021/08/21 04:33:46;;;;;;;19.20;15.70;;;;;;;16.14;83.56;100666.35;92892;1208;98141;-61
2021/08/21 04:35:55;;;;;;;20.40;15.90;;;;;;;16.10;83.60;100668.58;92849;1209;88184;-61
2021/08/21 04:38:02;;;;;;;18.00;14.50;;;;;;;16.07;83.55;100667.18;92845;1208;94804;-60
2021/08/21 04:40:13;;;;;;;17.40;14.40;;;;;;;16.05;83.61;100676.54;92851;1209;79579;-65
2021/08/21 04:42:20;;;;;;;17.20;15.40;;;;;;;16.05;83.56;100676.25;92930;1200;79359;-65
2021/08/21 04:44:28;;;;;;;21.20;16.80;;;;;;;16.06;83.63;100680.77;92867;1209;98742;-64
2021/08/21 04:46:36;;;;;;;23.70;16.80;;;;;;;16.06;83.62;100682.12;92888;1208;88159;-65
2021/08/21 04:48:46;;;;;;;19.70;14.70;;;;;;;16.12;83.61;100683.30;92884;1208;94310;-65
2021/08/21 04:50:54;;;;;;;17.60;14.80;;;;;;;16.17;83.53;100682.65;92885;1208;79417;-61
2021/08/21 04:53:02;;;;;;;21.70;16.20;;;;;;;16.17;83.52;100682.92;92890;1208;82762;-61
2021/08/21 04:55:12;;;;;;;18.30;15.30;;;;;;;16.19;83.52;100686.73;92884;1208;98474;-61
2021/08/21 04:57:19;;;;;;;19.40;15.40;;;;;;;16.18;83.57;100687.59;92906;1208;87362;-60
2021/08/21 04:59:27;;;;;;;22.00;17.40;;;;;;;16.22;83.60;100686.52;92881;1208;94016;-60
2021/08/21 05:01:34;;;;;;;18.60;15.40;;;;;;;16.21;83.52;100682.56;92856;1208;79531;-66
2021/08/21 05:03:45;;;;;;;18.20;14.30;;;;;;;16.22;83.58;100684.73;92891;1208;80910;-66
2021/08/21 05:05:56;;;;;;;18.10;15.80;;;;;;;16.26;83.61;100686.20;92886;1207;98432;-65
2021/08/21 05:08:03;;;;;;;20.30;17.00;;;;;;;16.28;83.65;100684.08;92919;1208;87858;-64
2021/08/21 05:10:12;;;;;;;19.70;16.80;;;;;;;16.25;83.65;100687.63;92914;1208;93681;-65
2021/08/21 05:12:20;;;;;;;20.10;17.10;;;;;;;16.22;83.62;100691.20;92880;1208;79406;-65
2021/08/21 05:14:27;;;;;;;21.70;17.20;;;;;;;16.23;83.59;100693.92;92869;1208;81950;-65
2021/08/21 05:16:37;;;;;;;19.80;16.80;;;;;;;16.29;83.61;100693.77;92909;1208;99554;-65
2021/08/21 05:18:48;;;;;;;20.50;18.30;;;;;;;16.31;83.60;100695.48;92897;1208;86906;-65
2021/08/21 05:21:05;;;;;;;24.00;18.80;;;;;;;16.32;83.62;100695.45;92902;1208;93824;-61
2021/08/21 05:23:15;;;;;;;21.20;17.90;;;;;;;16.33;83.56;100701.16;92869;1208;80682;-61
2021/08/21 05:25:22;;;;;;;20.80;17.60;;;;;;;16.35;83.56;100700.17;92876;1200;80582;-66
2021/08/21 05:27:31;;;;;;;21.10;18.00;;;;;;;16.36;83.61;100701.27;92862;1208;97382;-66
2021/08/21 05:29:41;;;;;;;25.80;20.50;;;;;;;16.34;83.61;100702.63;92883;1208;86225;-64
2021/08/21 05:31:50;;;;;;;21.40;18.40;;;;;;;16.36;83.54;100706.26;92872;1207;93946;-62
2021/08/21 05:33:57;;;;;;;21.90;18.50;;;;;;;16.38;83.57;100709.23;92893;1208;77715;-61
2021/08/21 05:36:06;;;;;;;22.30;18.70;;;;;;;16.38;83.64;100713.17;92889;1200;81280;-61
2021/08/21 05:38:14;;;;;;;24.10;18.00;;;;;;;16.38;83.55;100713.26;92899;1209;98280;-59
2021/08/21 05:40:22;;;;;;;21.20;17.20;;;;;;;16.39;83.49;100712.67;92872;1208;88210;-65
2021/08/21 05:42:30;;;;;;;24.40;19.70;;;;;;;16.44;83.54;100713.92;92883;1208;94247;-66
2021/08/21 05:44:41;;;;;;;22.10;19.10;;;;;;;16.47;83.45;100714.55;92873;1208;79516;-64
2021/08/21 05:46:51;;;;;;;22.60;18.50;;;;;;;16.46;83.50;100713.16;92889;1208;81421;-66
2021/08/21 05:48:59;;;;;;;22.90;18.60;;;;;;;16.45;83.51;100711.99;92843;1208;98741;-66
2021/08/21 05:51:08;;;;;;;24.20;18.10;;;;;;;16.43;83.43;100715.41;92868;1208;87926;-60
2021/08/21 05:53:15;;;;;;;25.00;19.70;;;;;;;16.39;83.48;100714.84;92877;1208;94382;-61
2021/08/21 05:55:23;;;;;;;22.30;19.40;;;;;;;16.34;83.46;100716.26;92890;1208;79589;-61
2021/08/21 05:57:30;;;;;;;22.60;17.50;;;;;;;16.35;83.53;100722.83;92891;1208;81981;-61
2021/08/21 05:59:41;;;;;;;21.00;18.20;;;;;;;16.36;83.63;100720.86;92888;1209;97429;-60
2021/08/21 06:01:48;;;;;;;21.50;16.80;;;;;;;16.40;83.57;100721.21;92876;1208;88336;-61
2021/08/21 06:03:59;;;;;;;21.30;17.60;;;;;;;16.45;83.62;100726.44;92877;1208;92055;-60
2021/08/21 06:06:06;;;;;;;22.70;18.10;;;;;;;16.50;83.62;100729.61;92894;1209;80373;-60
2021/08/21 06:08:14;;;;;;;21.60;18.50;;;;;;;16.53;83.74;100731.21;92901;1208;81278;-62
2021/08/21 06:10:21;;;;;;;21.80;17.30;;;;;;;16.66;83.79;100733.92;92871;1208;98171;-66
2021/08/21 06:12:29;;;;;;;22.30;17.80;;;;;;;16.81;83.69;100735.56;92874;1208;86454;-66
2021/08/21 06:14:39;;;;;;;22.80;18.80;;;;;;;16.93;83.57;100737.65;92901;1208;94381;-66
2021/08/21 06:16:50;;;;;;;21.70;18.70;;;;;;;17.04;83.53;100737.02;92883;1208;79575;-61
2021/08/21 06:19:00;;;;;;;24.80;19.00;;;;;;;17.13;83.56;100735.34;92901;1208;81931;-61
2021/08/21 06:21:08;;;;;;;20.30;17.90;;;;;;;17.19;83.39;100738.90;92897;1208;97667;-66
2021/08/21 06:23:15;;;;;;;21.50;17.80;;;;;;;17.23;83.40;100738.98;92892;1208;88227;-66
2021/08/21 06:25:23;;;;;;;22.10;17.80;;;;;;;17.26;83.26;100738.15;92881;1208;94518;-61
2021/08/21 06:27:31;;;;;;;24.40;19.00;;;;;;;17.31;83.17;100739.02;92862;1208;78298;-62
2021/08/21 06:29:41;;;;;;;20.80;18.50;;;;;;;17.40;83.19;100739.32;92887;1209;82248;-62
2021/08/21 06:31:49;;;;;;;20.40;17.30;;;;;;;17.49;83.10;100742.50;92879;1208;98214;-61
2021/08/21 06:33:56;;;;;;;20.40;17.20;;;;;;;17.51;83.04;100742.86;92882;1208;88541;-61
2021/08/21 06:36:04;;;;;;;20.50;17.00;;;;;;;17.48;83.01;100740.07;92893;1208;91985;-62
2021/08/21 06:38:12;;;;;;;20.10;17.20;;;;;;;17.51;82.95;100744.59;92880;1209;80652;-61
2021/08/21 06:40:19;;;;;;;21.80;17.80;;;;;;;17.59;82.89;100740.20;92890;1207;80759;-67
2021/08/21 06:42:27;;;;;;;19.50;17.10;;;;;;;17.63;82.84;100742.39;92875;1208;98777;-64
2021/08/21 06:44:38;;;;;;;19.90;17.70;;;;;;;17.70;82.68;100740.41;92892;1208;86513;-66
2021/08/21 06:46:46;;;;;;;19.80;16.50;;;;;;;17.74;82.54;100742.14;92857;1208;94442;-61
2021/08/21 06:48:53;;;;;;;20.30;16.20;;;;;;;17.75;82.59;100749.40;92871;1208;81377;-61
2021/08/21 06:51:01;;;;;;;19.40;16.70;;;;;;;17.82;82.47;100750.58;92916;1209;81379;-61
2021/08/21 06:53:09;;;;;;;20.00;16.30;;;;;;;17.91;82.53;100746.85;92876;1209;98184;-62
2021/08/21 06:55:16;;;;;;;20.40;17.20;;;;;;;17.94;82.57;100749.89;92885;1209;87570;-66
2021/08/21 06:57:24;;;;;;;21.20;17.20;;;;;;;18.01;82.50;100752.03;92879;1208;94217;-66
2021/08/21 06:59:31;;;;;;;17.90;15.50;;;;;;;18.16;82.39;100751.09;92857;1208;80884;-66
2021/08/21 07:01:40;;;;;;;17.40;14.50;;;;;;;18.31;82.32;100752.31;92864;1208;81289;-66
2021/08/21 07:03:48;;;;;;;18.00;15.90;;;;;;;18.46;82.10;100751.37;92856;1208;98541;-67
2021/08/21 07:05:56;;;;;;;18.00;15.80;;;;;;;18.60;82.02;100752.11;92890;1209;87800;-62
2021/08/21 07:08:04;;;;;;;18.30;15.40;;;;;;;18.70;81.97;100755.45;92867;1208;94055;-61
2021/08/21 07:10:13;;;;;;;20.30;15.80;;;;;;;18.81;81.93;100756.83;92886;1208;80313;-65
2021/08/21 07:12:21;;;;;;;17.10;14.90;;;;;;;18.95;81.70;100759.65;92859;1208;82425;-66
2021/08/21 07:14:29;;;;;;;16.20;13.90;;;;;;;18.99;81.37;100758.64;92804;1208;98458;-66
2021/08/21 07:16:40;;;;;;;17.90;15.30;;;;;;;19.01;81.20;100761.12;92897;1208;87737;-61
2021/08/21 07:18:47;;;;;;;19.30;14.40;;;;;;;19.00;81.41;100763.19;92858;1208;93491;-60
2021/08/21 07:20:55;;;;;;;18.40;14.60;;;;;;;19.02;81.49;100761.38;92880;1208;78363;-61
2021/08/21 07:23:02;;;;;;;17.90;14.50;;;;;;;19.10;81.22;100762.61;92888;1208;81530;-61
2021/08/21 07:25:12;;;;;;;16.40;14.40;;;;;;;19.07;81.39;100767.24;92877;1208;97340;-61
2021/08/21 07:27:19;;;;;;;18.90;15.00;;;;;;;19.10;80.78;100766.71;92915;1208;88191;-61
2021/08/21 07:29:27;;;;;;;17.80;15.00;;;;;;;19.14;80.58;100769.77;92869;1209;93724;-61
2021/08/21 07:31:35;;;;;;;17.80;15.30;;;;;;;19.20;80.38;100770.09;92844;1208;79453;-66
2021/08/21 07:33:42;;;;;;;19.10;14.70;;;;;;;19.27;80.29;100773.84;92879;1208;82036;-66
2021/08/21 07:35:50;;;;;;;16.00;13.90;;;;;;;19.38;80.26;100774.23;92891;1208;98808;-62
2021/08/21 07:38:00;;;;;;;17.40;14.50;;;;;;;19.49;80.06;100779.86;92892;1208;86717;-61
2021/08/21 07:40:11;;;;;;;17.60;14.20;;;;;;;19.59;79.78;100778.89;92865;1208;95282;-69
2021/08/21 07:42:19;;;;;;;14.20;12.80;;;;;;;19.61;79.35;100781.41;92894;1209;78054;-66
2021/08/21 07:44:27;;;;;;;18.20;15.40;;;;;;;19.58;79.33;100779.58;92881;1208;81494;-65
2021/08/21 07:46:35;;;;;;;31.60;26.40;;;;;;;19.67;79.12;100782.19;92858;1209;98960;-66
2021/08/21 07:48:42;;;;;;;44.90;38.90;;;;;;;19.82;79.13;100784.09;92889;1208;88306;-66
2021/08/21 07:50:50;;;;;;;18.40;15.90;;;;;;;20.02;78.97;100781.46;92858;1208;93647;-61
2021/08/21 07:52:58;;;;;;;15.70;13.40;;;;;;;20.13;78.70;100783.39;92861;1208;80379;-61
2021/08/21 07:55:07;;;;;;;15.10;13.50;;;;;;;20.28;78.75;100785.75;92925;1207;81430;-63
2021/08/21 07:57:14;;;;;;;15.20;13.60;;;;;;;20.54;78.41;100784.05;92913;1208;98084;-64
2021/08/21 07:59:22;;;;;;;14.50;13.00;;;;;;;20.48;77.95;100784.95;92880;1208;88105;-67
2021/08/21 08:01:33;;;;;;;14.60;12.20;;;;;;;20.47;77.71;100784.92;92856;1208;94497;-65
2021/08/21 08:03:41;;;;;;;14.70;13.00;;;;;;;20.43;77.47;100787.11;92866;1208;80733;-65
2021/08/21 08:05:48;;;;;;;14.30;11.50;;;;;;;20.36;77.28;100789.60;92886;1208;81334;-62
2021/08/21 08:07:56;;;;;;;11.80;10.40;;;;;;;20.23;76.78;100788.65;92885;1208;98531;-62
2021/08/21 08:10:09;;;;;;;13.40;11.60;;;;;;;20.13;76.72;100791.02;92863;1208;86363;-65
2021/08/21 08:12:17;;;;;;;12.40;11.10;;;;;;;20.14;76.78;100793.23;92897;1208;94203;-65
2021/08/21 08:14:25;;;;;;;12.80;11.50;;;;;;;20.19;76.60;100790.97;92881;1209;78941;-65
2021/08/21 08:16:32;;;;;;;13.30;11.50;;;;;;;20.27;76.76;100792.36;92892;1208;82003;-65
2021/08/21 08:18:40;;;;;;;11.80;10.40;;;;;;;20.28;76.51;100797.65;92881;1207;98335;-65
2021/08/21 08:20:47;;;;;;;12.00;10.80;;;;;;;20.37;76.45;100795.77;92883;1208;87569;-62
2021/08/21 08:22:56;;;;;;;12.20;10.90;;;;;;;20.52;76.28;100797.90;92869;1209;93887;-62
2021/08/21 08:25:03;;;;;;;12.40;10.50;;;;;;;20.58;76.03;100798.16;92874;1209;79621;-65
2021/08/21 08:27:13;;;;;;;12.10;10.00;;;;;;;20.56;75.71;100796.75;92862;1208;81698;-66
2021/08/21 08:29:20;;;;;;;11.00;9.70;;;;;;;20.52;75.89;100795.56;92885;1208;98804;-66
2021/08/21 08:31:28;;;;;;;11.70;10.50;;;;;;;20.54;75.73;100795.73;92861;1208;86944;-62
2021/08/21 08:33:35;;;;;;;13.10;10.80;;;;;;;20.74;75.93;100796.32;92888;1208;93861;-62
2021/08/21 08:35:43;;;;;;;10.50;9.30;;;;;;;21.21;76.42;100793.28;92878;1207;81309;-62
2021/08/21 08:37:54;;;;;;;10.60;9.60;;;;;;;21.69;75.61;100798.30;92860;1208;79257;-62
2021/08/21 08:40:02;;;;;;;9.70;8.60;;;;;;;21.94;74.64;100798.73;92907;1208;98468;-62
2021/08/21 08:42:11;;;;;;;9.60;8.70;;;;;;;21.94;73.69;100800.28;92874;1208;89386;-62
2021/08/21 08:44:23;;;;;;;9.20;8.30;;;;;;;22.18;73.94;100795.96;92896;1209;93911;-62
2021/08/21 08:46:31;;;;;;;9.40;8.30;;;;;;;23.10;73.97;100795.74;92869;1208;78383;-63
2021/08/21 08:48:43;;;;;;;8.20;7.40;;;;;;;23.48;72.69;100792.80;92868;1208;81490;-62
2021/08/21 08:50:51;;;;;;;9.10;7.70;;;;;;;23.25;71.60;100790.52;92872;1208;99486;-66
2021/08/21 08:53:03;;;;;;;9.00;7.50;;;;;;;23.04;71.21;100788.14;92885;1208;87376;-66
2021/08/21 08:55:13;;;;;;;7.80;7.00;;;;;;;22.81;70.25;100789.56;92888;1208;92639;-67
2021/08/21 08:57:38;;;;;;;7.80;7.00;;;;;;;22.71;70.54;100795.64;92869;1209;79900;-67
2021/08/21 08:59:46;;;;;;;7.10;6.40;;;;;;;22.90;71.10;100794.39;92884;1209;80319;-68
2021/08/21 09:01:54;;;;;;;7.00;6.30;;;;;;;23.73;71.14;100801.02;92877;1208;99677;-68
2021/08/21 09:04:20;;;;;;;7.80;7.10;;;;;;;24.18;70.13;100800.63;92881;1208;87990;-69
2021/08/21 09:06:38;;;;;;;7.40;6.70;;;;;;;24.21;68.77;100801.30;92848;1208;94636;-68
2021/08/21 09:08:46;;;;;;;7.70;6.60;;;;;;;23.88;68.14;100802.76;92878;1208;79382;-68
2021/08/21 09:10:57;;;;;;;7.40;6.70;;;;;;;23.58;67.73;100802.34;92898;1208;80584;-67
2021/08/21 09:13:11;;;;;;;8.40;7.60;;;;;;;23.22;67.55;100804.95;92892;1209;99119;-67
2021/08/21 09:15:30;;;;;;;9.50;7.10;;;;;;;22.89;67.42;100802.54;92864;1208;87981;-69
2021/08/21 09:17:38;;;;;;;7.60;6.50;;;;;;;22.63;67.64;100805.63;92878;1208;94200;-67
2021/08/21 09:19:48;;;;;;;7.40;6.60;;;;;;;22.80;68.41;100807.73;92866;1209;79530;-65
2021/08/21 09:22:10;;;;;;;8.40;7.40;;;;;;;23.33;68.34;100804.17;92902;1208;82057;-65
2021/08/21 09:24:28;;;;;;;6.80;6.10;;;;;;;23.61;67.54;100806.11;92888;1208;98925;-68
2021/08/21 09:26:36;;;;;;;8.80;6.90;;;;;;;23.63;67.26;100807.40;92909;1209;87209;-64
2021/08/21 09:28:48;;;;;;;6.30;5.70;;;;;;;23.50;66.68;100804.48;92867;1209;93414;-62
2021/08/21 09:31:07;;;;;;;6.20;5.30;;;;;;;23.21;66.07;100804.77;92877;1208;78939;-67
2021/08/21 09:33:18;;;;;;;5.90;5.10;;;;;;;23.09;66.44;100806.48;92891;1215;81897;-67
2021/08/21 09:35:34;;;;;;;6.20;5.60;;;;;;;23.10;66.72;100805.45;92884;1209;98608;-65
2021/08/21 09:37:57;;;;;;;5.80;5.20;;;;;;;23.01;66.54;100804.70;92860;1208;87345;-68
2021/08/21 09:40:21;;;;;;;5.30;4.60;;;;;;;22.78;66.33;100809.11;92834;1209;94565;-67
2021/08/21 09:42:39;;;;;;;5.50;4.60;;;;;;;22.56;66.24;100812.30;92863;1208;79773;-67
2021/08/21 09:44:47;;;;;;;5.30;4.40;;;;;;;22.35;66.53;100819.20;92867;1208;82000;-68
2021/08/21 09:47:13;;;;;;;5.10;4.20;;;;;;;22.32;66.65;100818.41;92838;1208;98322;-70
2021/08/21 09:49:23;;;;;;;4.30;3.90;;;;;;;22.27;66.60;100821.52;92888;1208;86681;-70